createdAt,value
2022-11-02T00:01:23.248Z,99140.05
2022-11-02T00:03:54.885Z,99144.45
2022-11-02T00:06:26.597Z,99146.09
2022-11-02T00:08:58.125Z,99151.78
2022-11-02T00:11:29.691Z,99150.70
2022-11-02T00:14:01.940Z,99144.00
2022-11-02T00:16:34.509Z,99147.16
2022-11-02T00:19:07.581Z,99151.08
2022-11-02T00:21:40.086Z,99148.17
2022-11-02T00:24:13.641Z,99144.77
2022-11-02T00:26:45.267Z,99145.58
2022-11-02T00:29:16.952Z,99143.23
2022-11-02T00:31:48.514Z,99145.91
2022-11-02T00:34:21.645Z,99149.40
2022-11-02T00:36:55.588Z,99148.36
2022-11-02T00:39:27.419Z,99150.70
2022-11-02T00:41:59.042Z,99148.02
2022-11-02T00:44:30.726Z,99152.65
2022-11-02T00:47:02.304Z,99152.92
2022-11-02T00:49:33.979Z,99159.14
2022-11-02T00:52:06.058Z,99163.91
2022-11-02T00:54:37.649Z,99162.84
2022-11-02T00:57:09.478Z,99159.18
2022-11-02T00:59:41.137Z,99158.54
2022-11-02T01:02:12.935Z,99153.81
2022-11-02T01:04:44.574Z,99152.64
2022-11-02T01:07:16.232Z,99157.49
2022-11-02T01:09:47.969Z,99161.77
2022-11-02T01:12:19.641Z,99161.05
2022-11-02T01:14:51.728Z,99161.61
2022-11-02T01:17:23.484Z,99160.23
2022-11-02T01:19:55.255Z,99157.89
2022-11-02T01:22:26.770Z,99157.41
2022-11-02T01:24:58.421Z,99158.58
2022-11-02T01:27:30.486Z,99166.25
2022-11-02T01:30:02.285Z,99162.61
2022-11-02T01:32:34.148Z,99163.60
2022-11-02T01:35:06.434Z,99164.39
2022-11-02T01:37:38.256Z,99166.02
2022-11-02T01:40:11.962Z,99165.81
2022-11-02T01:42:43.529Z,99164.45
2022-11-02T01:45:16.298Z,99164.56
2022-11-02T01:47:49.674Z,99161.77
2022-11-02T01:50:24.924Z,99160.02
2022-11-02T01:52:56.792Z,99159.11
2022-11-02T01:55:31.389Z,99158.89
2022-11-02T01:58:08.081Z,99156.81
2022-11-02T02:00:39.996Z,99159.77
2022-11-02T02:03:16.705Z,99156.44
2022-11-02T02:05:54.388Z,99156.13
2022-11-02T02:08:28.017Z,99159.03
2022-11-02T02:11:00.907Z,99160.29
2022-11-02T02:13:32.774Z,99164.23
2022-11-02T02:16:12.357Z,99161.61
2022-11-02T02:18:50.866Z,99160.65
2022-11-02T02:21:33.793Z,99161.92
2022-11-02T02:24:25.530Z,99165.32
2022-11-02T02:27:20.050Z,99167.80
2022-11-02T02:30:05.400Z,99166.00
2022-11-02T02:32:48.016Z,99172.33
2022-11-02T02:35:26.869Z,99175.49
2022-11-02T02:38:02.257Z,99176.60
2022-11-02T02:40:40.720Z,99172.77
2022-11-02T02:43:17.355Z,99174.81
2022-11-02T02:45:53.243Z,99177.42
2022-11-02T02:48:27.156Z,99174.58
2022-11-02T02:51:05.021Z,99172.98
2022-11-02T02:53:41.156Z,99170.42
2022-11-02T02:56:15.102Z,99168.29
2022-11-02T02:58:52.746Z,99169.48
2022-11-02T03:01:26.226Z,99167.04
2022-11-02T03:03:58.246Z,99166.60
2022-11-02T03:06:34.400Z,99169.89
2022-11-02T03:09:15.275Z,99167.80
2022-11-02T03:12:00.369Z,99171.56
2022-11-02T03:14:43.796Z,99175.46
2022-11-02T03:17:20.184Z,99179.67
2022-11-02T03:19:57.793Z,99181.88
2022-11-02T03:22:34.877Z,99186.13
2022-11-02T03:25:16.524Z,99185.08
2022-11-02T03:27:55.910Z,99180.89
2022-11-02T03:30:31.215Z,99186.35
2022-11-02T03:33:08.773Z,99190.64
2022-11-02T03:35:49.954Z,99196.64
2022-11-02T03:38:26.202Z,99193.84
2022-11-02T03:41:01.237Z,99197.87
2022-11-02T03:43:36.987Z,99196.44
2022-11-02T03:46:12.994Z,99196.84
2022-11-02T03:48:47.630Z,99198.03
2022-11-02T03:51:23.820Z,99195.09
2022-11-02T03:54:00.756Z,99198.55
2022-11-02T03:56:37.276Z,99198.73
2022-11-02T03:59:09.134Z,99199.43
2022-11-02T04:01:45.362Z,99193.73
2022-11-02T04:04:18.064Z,99194.91
2022-11-02T04:06:50.745Z,99194.73
2022-11-02T04:09:22.325Z,99200.45
2022-11-02T04:12:11.844Z,99202.71
2022-11-02T04:14:43.390Z,99206.87
2022-11-02T04:17:32.491Z,99201.46
2022-11-02T04:20:04.261Z,99201.28
2022-11-02T04:22:53.729Z,99200.83
2022-11-02T04:25:25.392Z,99201.40
2022-11-02T04:27:56.992Z,99206.69
2022-11-02T04:30:28.617Z,99207.80
2022-11-02T04:33:18.140Z,99207.16
2022-11-02T04:35:49.669Z,99209.02
2022-11-02T04:38:39.243Z,99209.38
2022-11-02T04:41:31.124Z,99216.73
2022-11-02T04:44:03.049Z,99217.39
2022-11-02T04:46:36.745Z,99214.73
2022-11-02T04:49:08.426Z,99216.86
2022-11-02T04:51:45.767Z,99211.66
2022-11-02T04:54:20.734Z,99211.38
2022-11-02T04:56:52.390Z,99212.90
2022-11-02T04:59:23.873Z,99215.25
2022-11-02T05:01:55.557Z,99210.47
2022-11-02T05:04:27.406Z,99213.76
2022-11-02T05:07:01.445Z,99215.70
2022-11-02T05:09:33.501Z,99220.27
2022-11-02T05:12:06.833Z,99214.72
2022-11-02T05:14:38.509Z,99225.91
2022-11-02T05:17:10.179Z,99227.26
2022-11-02T05:19:41.954Z,99227.29
2022-11-02T05:22:13.730Z,99233.56
2022-11-02T05:24:45.467Z,99227.98
2022-11-02T05:27:17.410Z,99230.50
2022-11-02T05:29:48.958Z,99237.89
2022-11-02T05:32:20.694Z,99238.92
2022-11-02T05:34:52.685Z,99240.30
2022-11-02T05:37:24.537Z,99241.99
2022-11-02T05:39:56.208Z,99237.45
2022-11-02T05:42:27.886Z,99236.81
2022-11-02T05:44:59.409Z,99234.30
2022-11-02T05:47:31.020Z,99236.85
2022-11-02T05:50:02.680Z,99232.71
2022-11-02T05:52:35.843Z,99240.44
2022-11-02T05:55:09.175Z,99251.48
2022-11-02T05:57:41.217Z,99248.91
2022-11-02T06:00:14.643Z,99239.09
2022-11-02T06:02:46.246Z,99243.38
2022-11-02T06:05:18.087Z,99244.63
2022-11-02T06:07:49.765Z,99249.38
2022-11-02T06:10:21.480Z,99252.75
2022-11-02T06:12:59.711Z,99254.90
2022-11-02T06:15:32.969Z,99247.14
2022-11-02T06:18:04.710Z,99250.08
2022-11-02T06:20:36.451Z,99251.48
2022-11-02T06:23:08.391Z,99250.69
2022-11-02T06:25:41.233Z,99252.01
2022-11-02T06:28:13.114Z,99254.55
2022-11-02T06:30:45.628Z,99251.23
2022-11-02T06:33:18.122Z,99253.83
2022-11-02T06:35:52.034Z,99255.89
2022-11-02T06:38:22.149Z,99254.56
2022-11-02T06:40:59.138Z,99254.48
2022-11-02T06:43:31.214Z,99259.55
2022-11-02T06:46:02.852Z,99261.58
2022-11-02T06:48:35.727Z,99262.60
2022-11-02T06:51:08.536Z,99263.15
2022-11-02T06:53:40.169Z,99263.27
2022-11-02T06:56:13.080Z,99267.30
2022-11-02T06:58:44.795Z,99265.79
2022-11-02T07:01:17.186Z,99262.57
2022-11-02T07:03:49.255Z,99268.33
2022-11-02T07:06:20.813Z,99268.75
2022-11-02T07:08:52.407Z,99264.80
2022-11-02T07:11:24.383Z,99266.60
2022-11-02T07:13:55.919Z,99272.13
2022-11-02T07:16:27.563Z,99270.58
2022-11-02T07:18:59.150Z,99272.33
2022-11-02T07:21:30.874Z,99278.52
2022-11-02T07:24:02.561Z,99274.02
2022-11-02T07:26:34.161Z,99273.92
2022-11-02T07:29:05.865Z,99273.36
2022-11-02T07:31:37.424Z,99273.96
2022-11-02T07:34:14.065Z,99279.23
2022-11-02T07:36:48.394Z,99276.42
2022-11-02T07:39:20.805Z,99278.28
2022-11-02T07:41:52.387Z,99278.23
2022-11-02T07:44:24.042Z,99277.21
2022-11-02T07:46:55.741Z,99274.90
2022-11-02T07:49:27.457Z,99272.35
2022-11-02T07:51:59.837Z,99270.30
2022-11-02T07:54:31.665Z,99271.98
2022-11-02T07:57:03.197Z,99271.44
2022-11-02T07:59:36.429Z,99272.28
2022-11-02T08:02:10.894Z,99268.82
2022-11-02T08:04:45.013Z,99268.50
2022-11-02T08:07:16.882Z,99264.45
2022-11-02T08:09:48.398Z,99262.88
2022-11-02T08:12:20.007Z,99260.55
2022-11-02T08:14:51.705Z,99263.63
2022-11-02T08:17:23.381Z,99263.84
2022-11-02T08:19:55.133Z,99260.23
2022-11-02T08:22:26.810Z,99262.16
2022-11-02T08:24:58.539Z,99261.09
2022-11-02T08:27:30.359Z,99262.77
2022-11-02T08:30:02.119Z,99262.51
2022-11-02T08:32:33.978Z,99258.83
2022-11-02T08:35:06.541Z,99257.10
2022-11-02T08:37:38.255Z,99256.45
2022-11-02T08:40:12.744Z,99251.20
2022-11-02T08:42:44.478Z,99251.11
2022-11-02T08:45:17.605Z,99252.22
2022-11-02T08:47:49.248Z,99247.80
2022-11-02T08:50:21.449Z,99251.63
2022-11-02T08:52:53.346Z,99246.51
2022-11-02T08:55:25.089Z,99246.45
2022-11-02T08:57:58.582Z,99248.14
2022-11-02T09:00:32.343Z,99242.71
2022-11-02T09:03:06.319Z,99238.73
2022-11-02T09:05:40.013Z,99237.19
2022-11-02T09:08:14.983Z,99239.05
2022-11-02T09:10:49.565Z,99239.91
2022-11-02T09:13:25.604Z,99231.95
2022-11-02T09:15:58.871Z,99230.73
2022-11-02T09:18:30.897Z,99228.80
2022-11-02T09:21:06.220Z,99227.77
2022-11-02T09:23:37.990Z,99225.80
2022-11-02T09:26:09.698Z,99228.79
2022-11-02T09:28:41.449Z,99223.83
2022-11-02T09:31:13.130Z,99221.13
2022-11-02T09:33:44.877Z,99226.43
2022-11-02T09:36:16.587Z,99226.48
2022-11-02T09:38:48.349Z,99223.14
2022-11-02T09:41:27.566Z,99226.23
2022-11-02T09:44:08.778Z,99225.39
2022-11-02T09:46:43.161Z,99225.96
2022-11-02T09:49:17.887Z,99224.73
2022-11-02T09:51:53.001Z,99232.34
2022-11-02T09:54:29.166Z,99227.52
2022-11-02T09:57:05.827Z,99231.70
2022-11-02T09:59:37.701Z,99231.95
2022-11-02T10:02:21.327Z,99228.98
2022-11-02T10:05:02.388Z,99226.95
2022-11-02T10:07:45.280Z,99224.90
2022-11-02T10:10:33.325Z,99226.60
2022-11-02T10:13:16.999Z,99229.83
2022-11-02T10:15:52.249Z,99229.56
2022-11-02T10:18:27.566Z,99230.09
2022-11-02T10:21:06.528Z,99230.80
2022-11-02T10:23:41.902Z,99230.52
2022-11-02T10:26:20.435Z,99232.05
2022-11-02T10:28:58.082Z,99233.09
2022-11-02T10:31:33.526Z,99230.40
2022-11-02T10:34:22.157Z,99223.27
2022-11-02T10:37:06.940Z,99229.67
2022-11-02T10:39:49.021Z,99226.58
2022-11-02T10:42:44.901Z,99223.98
2022-11-02T10:45:44.503Z,99222.66
2022-11-02T10:48:29.482Z,99217.55
2022-11-02T10:51:09.632Z,99215.13
2022-11-02T10:53:45.135Z,99212.52
2022-11-02T10:56:20.438Z,99222.17
2022-11-02T10:59:01.471Z,99220.72
2022-11-02T11:01:33.877Z,99222.23
2022-11-02T11:04:07.822Z,99216.31
2022-11-02T11:06:42.399Z,99208.27
2022-11-02T11:09:21.161Z,99207.05
2022-11-02T11:12:00.841Z,99208.89
2022-11-02T11:20:37.815Z,99207.52
2022-11-02T11:23:24.351Z,99209.31
2022-11-02T11:26:00.770Z,99212.14
2022-11-02T11:28:37.934Z,99214.14
2022-11-02T11:31:16.876Z,99213.14
2022-11-02T11:33:53.204Z,99215.20
2022-11-02T11:36:31.054Z,99212.84
2022-11-02T11:39:05.265Z,99210.12
2022-11-02T11:41:40.916Z,99208.25
2022-11-02T11:44:16.554Z,99204.39
2022-11-02T11:46:50.786Z,99202.70
2022-11-02T11:49:41.464Z,99200.61
2022-11-02T11:52:26.987Z,99195.27
2022-11-02T11:55:20.206Z,99194.90
2022-11-02T11:58:08.814Z,99191.05
2022-11-02T12:00:40.926Z,99194.59
2022-11-02T12:03:16.374Z,99189.95
2022-11-02T12:06:02.361Z,99186.84
2022-11-02T12:08:50.767Z,99187.44
2022-11-02T12:11:40.920Z,99187.42
2022-11-02T12:14:26.421Z,99183.69
2022-11-02T12:17:09.908Z,99181.22
2022-11-02T12:19:59.638Z,99181.89
2022-11-02T12:22:44.995Z,99179.04
2022-11-02T12:25:36.420Z,99182.08
2022-11-02T12:28:20.586Z,99182.09
2022-11-02T12:31:03.624Z,99178.61
2022-11-02T12:33:57.561Z,99177.70
2022-11-02T12:37:01.689Z,99177.45
2022-11-02T12:39:45.874Z,99176.07
2022-11-02T12:42:29.206Z,99176.20
2022-11-02T12:45:21.969Z,99170.06
2022-11-02T12:47:59.647Z,99167.89
2022-11-02T12:50:48.371Z,99163.83
2022-11-02T12:53:31.980Z,99168.91
2022-11-02T12:56:07.821Z,99170.36
2022-11-02T12:58:42.136Z,99165.05
2022-11-02T13:01:23.785Z,99164.95
2022-11-02T13:04:02.239Z,99166.63
2022-11-02T13:06:38.396Z,99171.26
2022-11-02T13:09:17.367Z,99171.07
2022-11-02T13:11:54.665Z,99170.15
2022-11-02T13:14:30.336Z,99170.28
2022-11-02T13:17:11.748Z,99173.41
2022-11-02T13:19:48.365Z,99170.16
2022-11-02T13:22:27.619Z,99171.09
2022-11-02T13:25:07.407Z,99171.02
2022-11-02T13:27:47.514Z,99170.26
2022-11-02T13:30:20.916Z,99172.82
2022-11-02T13:33:00.902Z,99178.27
2022-11-02T13:35:36.116Z,99176.05
2022-11-02T13:38:20.920Z,99177.65
2022-11-02T13:41:07.597Z,99176.44
2022-11-02T13:44:01.614Z,99175.46
2022-11-02T13:46:54.703Z,99173.02
2022-11-02T13:49:34.341Z,99173.73
2022-11-02T13:52:14.889Z,99176.20
2022-11-02T13:54:52.030Z,99177.16
2022-11-02T13:57:37.534Z,99185.14
2022-11-02T14:00:36.221Z,99185.02
2022-11-02T14:03:16.482Z,99187.50
2022-11-02T14:05:51.714Z,99181.34
2022-11-02T14:08:32.640Z,99178.52
2022-11-02T14:11:23.290Z,99181.33
2022-11-02T14:14:20.142Z,99181.02
2022-11-02T14:17:17.241Z,99177.94
2022-11-02T14:20:00.903Z,99180.77
2022-11-02T14:22:33.117Z,99182.77
2022-11-02T14:25:24.154Z,99182.55
2022-11-02T14:27:57.286Z,99182.23
2022-11-02T14:30:56.230Z,99180.09
2022-11-02T14:33:50.256Z,99177.95
2022-11-02T14:36:45.004Z,99178.61
2022-11-02T14:39:27.358Z,99177.97
2022-11-02T14:42:32.005Z,99179.65
2022-11-02T14:45:14.114Z,99179.98
2022-11-02T14:47:46.513Z,99178.61
2022-11-02T14:50:21.431Z,99181.80
2022-11-02T14:53:06.360Z,99180.34
2022-11-02T14:55:40.019Z,99182.80
2022-11-02T14:58:20.377Z,99185.25
2022-11-02T15:01:00.684Z,99186.25
2022-11-02T15:03:37.558Z,99183.46
2022-11-02T15:06:20.127Z,99183.42
2022-11-02T15:08:57.457Z,99183.71
2022-11-02T15:11:51.105Z,99185.65
2022-11-02T15:14:56.069Z,99189.66
2022-11-02T15:17:55.535Z,99195.30
2022-11-02T15:20:34.213Z,99200.27
2022-11-02T15:23:30.353Z,99205.95
2022-11-02T15:26:14.698Z,99204.81
2022-11-02T15:28:49.847Z,99205.95
2022-11-02T15:31:26.061Z,99210.74
2022-11-02T15:34:00.377Z,99212.60
2022-11-02T15:36:33.528Z,99214.44
2022-11-02T15:39:08.352Z,99219.97
2022-11-02T15:41:44.857Z,99220.35
2022-11-02T15:44:33.822Z,99224.48
2022-11-02T15:47:16.130Z,99227.55
2022-11-02T15:50:17.975Z,99231.64
2022-11-02T15:53:23.959Z,99241.48
2022-11-02T15:56:11.502Z,99246.42
2022-11-02T15:58:54.291Z,99246.95
2022-11-02T16:01:27.947Z,99243.31
2022-11-02T16:04:00.125Z,99243.04
2022-11-02T16:06:35.891Z,99243.41
2022-11-02T16:09:31.371Z,99246.23
2022-11-02T16:12:14.262Z,99248.99
2022-11-02T16:14:47.325Z,99252.72
2022-11-02T16:17:30.178Z,99253.16
2022-11-02T16:20:19.189Z,99254.05
2022-11-02T16:22:54.457Z,99262.66
2022-11-02T16:25:38.488Z,99266.63
2022-11-02T16:28:22.745Z,99265.85
2022-11-02T16:31:13.488Z,99271.61
2022-11-02T16:33:51.485Z,99273.20
2022-11-02T16:36:25.265Z,99276.69
2022-11-02T16:39:03.587Z,99280.15
2022-11-02T16:41:37.561Z,99283.09
2022-11-02T16:44:18.098Z,99288.66
2022-11-02T16:46:54.443Z,99289.89
2022-11-02T16:49:28.726Z,99294.27
2022-11-02T16:52:02.110Z,99297.21
2022-11-02T16:54:42.827Z,99296.56
2022-11-02T16:57:20.668Z,99299.27
2022-11-02T16:59:55.490Z,99302.20
2022-11-02T17:02:34.512Z,99301.39
2022-11-02T17:05:16.190Z,99299.29
2022-11-02T17:07:59.884Z,99299.60
2022-11-02T17:10:33.634Z,99303.58
2022-11-02T17:13:08.017Z,99306.84
2022-11-02T17:15:40.412Z,99310.33
2022-11-02T17:18:28.223Z,99309.71
2022-11-02T17:21:29.750Z,99311.02
2022-11-02T17:24:01.748Z,99315.52
2022-11-02T17:26:38.605Z,99317.20
2022-11-02T17:29:33.204Z,99317.65
2022-11-02T17:32:07.257Z,99321.48
2022-11-02T17:34:38.862Z,99322.78
2022-11-02T17:37:22.593Z,99324.44
2022-11-02T17:39:55.002Z,99328.92
2022-11-02T17:42:44.822Z,99326.02
2022-11-02T17:45:31.568Z,99331.37
2022-11-02T17:48:06.011Z,99327.70
2022-11-02T17:50:40.230Z,99328.94
2022-11-02T17:53:14.718Z,99330.20
2022-11-02T17:55:46.337Z,99330.27
2022-11-02T17:58:18.068Z,99330.34
2022-11-02T18:00:49.790Z,99330.41
2022-11-02T18:03:25.420Z,99331.39
2022-11-02T18:06:00.779Z,99336.41
2022-11-02T18:08:54.755Z,99343.14
2022-11-02T18:11:26.855Z,99341.75
2022-11-02T18:13:58.673Z,99340.48
2022-11-02T18:16:31.226Z,99345.48
2022-11-02T18:19:03.133Z,99339.30
2022-11-02T18:21:34.883Z,99338.08
2022-11-02T18:24:07.138Z,99338.84
2022-11-02T18:26:41.431Z,99344.29
2022-11-02T18:29:16.152Z,99346.29
2022-11-02T18:31:47.953Z,99343.80
2022-11-02T18:34:19.678Z,99347.70
2022-11-02T18:36:51.597Z,99352.27
2022-11-02T18:39:23.374Z,99350.83
2022-11-02T18:41:55.236Z,99349.90
2022-11-02T18:44:27.076Z,99349.68
2022-11-02T18:46:59.375Z,99351.30
2022-11-02T18:49:31.028Z,99352.54
2022-11-02T18:52:02.650Z,99354.80
2022-11-02T18:54:34.327Z,99359.85
2022-11-02T18:57:05.983Z,99361.57
2022-11-02T18:59:38.169Z,99366.20
2022-11-02T19:02:11.360Z,99366.24
2022-11-02T19:04:43.092Z,99367.34
2022-11-02T19:07:32.456Z,99371.52
2022-11-02T19:10:07.209Z,99372.59
2022-11-02T19:12:38.952Z,99370.24
2022-11-02T19:15:11.792Z,99372.61
2022-11-02T19:17:45.208Z,99379.08
2022-11-02T19:20:17.091Z,99381.63
2022-11-02T19:22:54.715Z,99386.92
2022-11-02T19:25:26.418Z,99384.23
2022-11-02T19:27:58.072Z,99384.23
2022-11-02T19:30:29.764Z,99379.52
2022-11-02T19:33:01.493Z,99383.63
2022-11-02T19:35:36.424Z,99386.63
2022-11-02T19:38:08.102Z,99393.92
2022-11-02T19:40:39.826Z,99395.34
2022-11-02T19:43:11.626Z,99401.63
2022-11-02T19:45:43.270Z,99405.78
2022-11-02T19:48:14.937Z,99402.67
2022-11-02T19:50:46.519Z,99407.43
2022-11-02T19:53:18.194Z,99412.23
2022-11-02T19:55:54.875Z,99414.02
2022-11-02T19:58:26.818Z,99410.77
2022-11-02T20:00:58.683Z,99409.23
2022-11-02T20:03:30.419Z,99410.98
2022-11-02T20:06:03.954Z,99407.65
2022-11-02T20:08:35.867Z,99409.64
2022-11-02T20:11:10.087Z,99410.02
2022-11-02T20:13:43.763Z,99417.97
2022-11-02T20:16:17.740Z,99416.21
2022-11-02T20:18:51.260Z,99414.63
2022-11-02T20:21:29.848Z,99416.20
2022-11-02T20:24:04.354Z,99414.96
2022-11-02T20:26:38.028Z,99411.05
2022-11-02T20:29:13.642Z,99413.91
2022-11-02T20:31:49.077Z,99415.67
2022-11-02T20:34:20.711Z,99415.20
2022-11-02T20:36:52.324Z,99415.67
2022-11-02T20:39:23.960Z,99412.78
2022-11-02T20:41:57.132Z,99416.41
2022-11-02T20:44:28.850Z,99416.41
2022-11-02T20:47:00.475Z,99417.32
2022-11-02T20:52:23.996Z,99419.35
2022-11-02T20:54:55.654Z,99419.58
2022-11-02T20:57:28.401Z,99416.78
2022-11-02T21:00:00.120Z,99418.05
2022-11-02T21:02:31.868Z,99416.23
2022-11-02T21:05:04.969Z,99421.33
2022-11-02T21:07:36.608Z,99422.98
2022-11-02T21:10:11.141Z,99422.09
2022-11-02T21:13:00.344Z,99423.85
2022-11-02T21:15:32.042Z,99425.55
2022-11-02T21:18:04.330Z,99428.33
2022-11-02T21:20:36.246Z,99426.06
2022-11-02T21:23:09.305Z,99427.02
2022-11-02T21:25:41.241Z,99427.95
2022-11-02T21:28:12.905Z,99428.34
2022-11-02T21:30:44.497Z,99432.54
2022-11-02T21:33:16.252Z,99429.42
2022-11-02T21:35:48.612Z,99430.48
2022-11-02T21:38:20.373Z,99436.38
2022-11-02T21:40:52.247Z,99443.08
2022-11-02T21:43:23.935Z,99439.19
2022-11-02T21:45:57.319Z,99438.85
2022-11-02T21:48:31.559Z,99445.55
2022-11-02T21:51:05.612Z,99440.66
2022-11-02T21:53:39.583Z,99437.71
2022-11-02T21:56:13.393Z,99439.58
2022-11-02T21:58:45.903Z,99438.84
2022-11-02T22:01:39.316Z,99442.04
2022-11-02T22:04:12.516Z,99446.54
2022-11-02T22:06:46.270Z,99443.85
2022-11-02T22:09:18.743Z,99442.81
2022-11-02T22:12:10.722Z,99442.73
2022-11-02T22:14:44.734Z,99440.40
2022-11-02T22:17:35.367Z,99437.27
2022-11-02T22:20:10.185Z,99439.05
2022-11-02T22:22:41.750Z,99437.33
2022-11-02T22:25:13.764Z,99434.92
2022-11-02T22:27:45.515Z,99436.27
2022-11-02T22:30:17.876Z,99439.05
2022-11-02T22:32:49.534Z,99441.39
2022-11-02T22:35:21.234Z,99446.94
2022-11-02T22:38:10.665Z,99447.11
2022-11-02T22:40:42.271Z,99451.42
2022-11-02T22:43:14.062Z,99458.08
2022-11-02T22:45:45.852Z,99462.32
2022-11-02T22:50:50.227Z,99467.56
2022-11-02T22:53:22.161Z,99470.79
2022-11-02T22:56:01.309Z,99472.66
2022-11-02T22:58:35.221Z,99472.09
2022-11-02T23:01:05.992Z,99471.70
2022-11-02T23:03:38.208Z,99473.07
2022-11-02T23:06:10.981Z,99470.42
2022-11-02T23:08:45.802Z,99469.21
2022-11-02T23:11:22.262Z,99468.05
2022-11-02T23:13:57.347Z,99470.62
2022-11-02T23:16:30.964Z,99469.27
2022-11-02T23:19:28.221Z,99469.75
2022-11-02T23:22:20.489Z,99469.71
2022-11-02T23:25:12.456Z,99469.63
2022-11-02T23:28:04.071Z,99463.96
2022-11-02T23:31:06.673Z,99468.27
2022-11-02T23:33:40.790Z,99472.98
2022-11-02T23:36:16.002Z,99473.48
2022-11-02T23:39:06.299Z,99479.43
2022-11-02T23:41:39.099Z,99479.55
2022-11-02T23:44:14.183Z,99476.67
2022-11-02T23:46:48.542Z,99476.34
2022-11-02T23:49:21.042Z,99482.55
2022-11-02T23:52:10.319Z,99489.98
2022-11-02T23:54:59.826Z,99486.39
2022-11-02T23:57:32.052Z,99490.84
